createdAt,value
2022-10-01T00:00:57.312Z,71.43
2022-10-01T00:03:36.818Z,71.38
2022-10-01T00:06:13.173Z,71.55
2022-10-01T00:08:41.936Z,71.70
2022-10-01T00:11:11.448Z,71.59
2022-10-01T00:13:38.677Z,71.68
2022-10-01T00:16:11.247Z,71.60
2022-10-01T00:18:40.237Z,71.84
2022-10-01T00:21:11.710Z,71.85
2022-10-01T00:23:38.758Z,71.94
2022-10-01T00:26:14.932Z,71.94
2022-10-01T00:28:42.438Z,71.71
2022-10-01T00:31:09.845Z,71.96
2022-10-01T00:33:38.024Z,72.00
2022-10-01T00:36:06.761Z,72.11
2022-10-01T00:38:34.195Z,72.04
2022-10-01T00:41:01.213Z,72.12
2022-10-01T00:43:33.815Z,72.10
2022-10-01T00:46:09.072Z,72.15
2022-10-01T00:48:48.087Z,72.42
2022-10-01T00:51:15.156Z,72.43
2022-10-01T00:53:44.357Z,72.54
2022-10-01T00:56:11.047Z,72.43
2022-10-01T00:58:38.875Z,72.58
2022-10-01T01:01:05.663Z,72.49
2022-10-01T01:03:32.313Z,72.42
2022-10-01T01:05:58.991Z,72.34
2022-10-01T01:08:25.888Z,72.23
2022-10-01T01:11:04.964Z,72.30
2022-10-01T01:13:54.121Z,72.41
2022-10-01T01:16:25.675Z,72.52
2022-10-01T01:19:08.502Z,72.46
2022-10-01T01:21:42.672Z,72.62
2022-10-01T01:24:21.453Z,72.78
2022-10-01T01:27:26.510Z,72.79
2022-10-01T01:30:14.820Z,73.02
2022-10-01T01:33:08.841Z,73.07
2022-10-01T01:35:45.188Z,73.22
2022-10-01T01:38:17.081Z,73.14
2022-10-01T01:40:45.693Z,72.94
2022-10-01T01:43:19.961Z,73.06
2022-10-01T01:45:50.911Z,73.12
2022-10-01T01:48:17.670Z,72.99
2022-10-01T01:50:52.350Z,72.94
2022-10-01T01:53:19.677Z,72.99
2022-10-01T01:55:48.745Z,72.83
2022-10-01T01:58:19.533Z,72.82
2022-10-01T02:00:51.816Z,72.85
2022-10-01T02:03:21.705Z,72.77
2022-10-01T02:06:02.147Z,72.76
2022-10-01T02:08:54.640Z,72.95
2022-10-01T02:11:28.217Z,72.88
2022-10-01T02:14:09.248Z,72.77
2022-10-01T02:16:56.323Z,72.79
2022-10-01T02:19:30.942Z,72.90
2022-10-01T02:22:07.411Z,72.74
2022-10-01T02:25:08.791Z,72.85
2022-10-01T02:27:40.110Z,72.88
2022-10-01T02:30:09.259Z,72.71
2022-10-01T02:32:38.767Z,72.95
2022-10-01T02:35:10.109Z,72.86
2022-10-01T02:37:39.740Z,72.74
2022-10-01T02:40:14.159Z,72.96
2022-10-01T02:42:48.520Z,72.92
2022-10-01T02:45:23.590Z,72.78
2022-10-01T02:48:05.582Z,72.78
2022-10-01T02:50:56.834Z,72.75
2022-10-01T02:53:39.509Z,72.64
2022-10-01T02:56:07.721Z,72.68
2022-10-01T02:58:35.783Z,72.78
2022-10-01T03:01:03.130Z,72.78
2022-10-01T03:03:30.530Z,72.70
2022-10-01T03:05:57.272Z,72.60
2022-10-01T03:08:23.896Z,72.74
2022-10-01T03:10:50.616Z,72.79
2022-10-01T03:13:19.169Z,73.04
2022-10-01T03:15:46.542Z,73.03
2022-10-01T03:18:13.245Z,72.81
2022-10-01T03:20:40.028Z,72.92
2022-10-01T03:23:06.675Z,72.98
2022-10-01T03:25:33.820Z,72.79
2022-10-01T03:28:00.728Z,72.76
2022-10-01T03:30:27.860Z,72.85
2022-10-01T03:32:54.945Z,72.95
2022-10-01T03:35:22.313Z,72.94
2022-10-01T03:37:49.064Z,73.00
2022-10-01T03:40:15.838Z,72.95
2022-10-01T03:42:42.546Z,73.11
2022-10-01T03:45:09.586Z,73.16
2022-10-01T03:47:36.473Z,73.13
2022-10-01T03:50:03.559Z,73.10
2022-10-01T03:52:30.249Z,73.17
2022-10-01T03:54:56.901Z,73.18
2022-10-01T03:57:23.590Z,73.17
2022-10-01T03:59:50.275Z,72.89
2022-10-01T04:02:17.033Z,73.10
2022-10-01T04:04:43.839Z,72.93
2022-10-01T04:07:10.494Z,72.96
2022-10-01T04:09:37.587Z,73.07
2022-10-01T04:12:04.485Z,73.13
2022-10-01T04:14:31.180Z,73.15
2022-10-01T04:16:58.476Z,73.06
2022-10-01T04:19:25.369Z,72.92
2022-10-01T04:21:52.114Z,72.96
2022-10-01T04:24:18.814Z,73.07
2022-10-01T04:26:45.692Z,73.00
2022-10-01T04:29:12.622Z,73.22
2022-10-01T04:31:39.738Z,73.18
2022-10-01T04:34:06.716Z,73.08
2022-10-01T04:36:33.875Z,72.94
2022-10-01T04:39:02.604Z,73.22
2022-10-01T04:41:31.422Z,73.24
2022-10-01T04:43:59.155Z,73.31
2022-10-01T04:46:26.376Z,73.57
2022-10-01T04:48:53.183Z,73.50
2022-10-01T04:51:19.970Z,73.59
2022-10-01T04:53:46.727Z,73.72
2022-10-01T04:56:13.476Z,73.61
2022-10-01T04:58:40.724Z,73.66
2022-10-01T05:01:07.445Z,73.73
2022-10-01T05:03:34.352Z,73.85
2022-10-01T05:06:01.346Z,73.91
2022-10-01T05:08:29.529Z,73.79
2022-10-01T05:10:58.797Z,73.82
2022-10-01T05:13:30.238Z,73.89
2022-10-01T05:15:58.008Z,73.79
2022-10-01T05:18:24.814Z,73.79
2022-10-01T05:20:51.647Z,73.85
2022-10-01T05:23:18.354Z,73.98
2022-10-01T05:25:46.297Z,74.13
2022-10-01T05:28:16.056Z,74.13
2022-10-01T05:30:46.585Z,74.19
2022-10-01T05:33:13.363Z,74.18
2022-10-01T05:35:40.793Z,74.24
2022-10-01T05:38:07.668Z,74.27
2022-10-01T05:40:34.435Z,74.46
2022-10-01T05:43:03.785Z,74.33
2022-10-01T05:45:31.796Z,74.39
2022-10-01T05:48:01.063Z,74.42
2022-10-01T05:50:33.266Z,74.48
2022-10-01T05:53:01.455Z,74.62
2022-10-01T05:55:33.954Z,74.75
2022-10-01T05:58:03.780Z,74.71
2022-10-01T06:00:31.642Z,74.63
2022-10-01T06:03:00.541Z,74.82
2022-10-01T06:05:28.804Z,74.74
2022-10-01T06:07:56.048Z,74.88
2022-10-01T06:10:24.142Z,74.81
2022-10-01T06:12:51.359Z,74.82
2022-10-01T06:15:18.434Z,74.80
2022-10-01T06:17:45.166Z,74.86
2022-10-01T06:20:16.761Z,74.74
2022-10-01T06:22:44.155Z,74.73
2022-10-01T06:25:12.044Z,74.75
2022-10-01T06:27:39.067Z,74.77
2022-10-01T06:30:06.654Z,74.67
2022-10-01T06:32:35.047Z,74.64
2022-10-01T06:35:03.740Z,74.79
2022-10-01T06:37:30.610Z,74.75
2022-10-01T06:39:57.325Z,74.84
2022-10-01T06:42:24.319Z,74.96
2022-10-01T06:44:51.057Z,74.99
2022-10-01T06:47:17.861Z,75.04
2022-10-01T06:49:47.696Z,74.94
2022-10-01T06:52:33.242Z,75.07
2022-10-01T06:55:00.913Z,74.95
2022-10-01T06:57:28.537Z,74.95
2022-10-01T06:59:55.424Z,74.78
2022-10-01T07:02:29.643Z,74.84
2022-10-01T07:04:59.532Z,74.84
2022-10-01T07:07:33.158Z,74.72
2022-10-01T07:10:00.080Z,74.86
2022-10-01T07:12:27.006Z,74.71
2022-10-01T07:14:54.177Z,74.62
2022-10-01T07:17:21.959Z,74.63
2022-10-01T07:19:48.792Z,74.57
2022-10-01T07:22:17.417Z,74.66
2022-10-01T07:24:44.597Z,74.73
2022-10-01T07:27:12.559Z,74.75
2022-10-01T07:29:39.838Z,74.80
2022-10-01T07:32:08.313Z,74.69
2022-10-01T07:34:37.663Z,74.76
2022-10-01T07:37:04.738Z,74.44
2022-10-01T07:39:31.881Z,74.40
2022-10-01T07:41:58.655Z,74.35
2022-10-01T07:44:28.918Z,74.61
2022-10-01T07:46:56.405Z,74.52
2022-10-01T07:49:24.682Z,74.38
2022-10-01T07:51:53.907Z,74.03
2022-10-01T07:54:21.915Z,74.11
2022-10-01T07:56:52.206Z,74.10
2022-10-01T07:59:19.278Z,74.28
2022-10-01T08:01:51.345Z,74.01
2022-10-01T08:04:38.117Z,73.80
2022-10-01T08:07:06.943Z,73.91
2022-10-01T08:09:34.326Z,73.95
2022-10-01T08:12:02.387Z,73.88
2022-10-01T08:14:29.869Z,73.86
2022-10-01T08:16:57.067Z,73.66
2022-10-01T08:19:24.162Z,73.75
2022-10-01T08:21:50.933Z,73.86
2022-10-01T08:24:17.776Z,73.45
2022-10-01T08:26:45.540Z,73.48
2022-10-01T08:29:16.307Z,73.24
2022-10-01T08:31:43.789Z,73.29
2022-10-01T08:34:10.524Z,73.31
2022-10-01T08:36:37.458Z,73.39
2022-10-01T08:39:04.195Z,73.19
2022-10-01T08:41:30.991Z,73.12
2022-10-01T08:44:01.090Z,73.09
2022-10-01T08:46:32.231Z,73.01
2022-10-01T08:49:20.157Z,73.01
2022-10-01T08:51:54.118Z,72.74
2022-10-01T08:54:39.008Z,72.65
2022-10-01T08:57:12.557Z,72.33
2022-10-01T08:59:50.421Z,72.48
2022-10-01T09:02:25.009Z,72.13
2022-10-01T09:05:02.008Z,71.96
2022-10-01T09:07:53.455Z,71.84
2022-10-01T09:10:47.038Z,71.71
2022-10-01T09:13:39.783Z,71.55
2022-10-01T09:16:19.536Z,71.59
2022-10-01T09:19:10.959Z,71.58
2022-10-01T09:22:01.632Z,71.31
2022-10-01T09:24:42.080Z,71.44
2022-10-01T09:27:15.744Z,71.14
2022-10-01T09:29:53.053Z,70.98
2022-10-01T09:32:24.229Z,71.04
2022-10-01T09:34:52.217Z,70.73
2022-10-01T09:37:21.738Z,70.61
2022-10-01T09:40:12.375Z,70.40
2022-10-01T09:42:39.237Z,70.29
2022-10-01T09:45:08.076Z,70.25
2022-10-01T09:47:34.806Z,70.38
2022-10-01T09:50:18.913Z,70.13
2022-10-01T09:52:56.265Z,70.11
2022-10-01T09:55:58.117Z,69.65
2022-10-01T09:58:28.567Z,69.81
2022-10-01T10:00:56.282Z,69.80
2022-10-01T10:03:31.496Z,69.58
2022-10-01T10:05:59.496Z,69.38
2022-10-01T10:08:56.295Z,69.29
2022-10-01T10:11:42.371Z,68.99
2022-10-01T10:14:19.491Z,68.74
2022-10-01T10:16:47.956Z,68.77
2022-10-01T10:19:24.191Z,68.60
2022-10-01T10:21:57.387Z,68.58
2022-10-01T10:24:52.283Z,68.46
2022-10-01T10:28:10.740Z,68.06
2022-10-01T10:30:42.257Z,68.13
2022-10-01T10:33:14.201Z,68.07
2022-10-01T10:36:35.569Z,67.81
2022-10-01T10:39:05.732Z,67.65
2022-10-01T10:41:33.964Z,67.46
2022-10-01T10:44:07.275Z,67.61
2022-10-01T10:46:46.462Z,67.45
2022-10-01T10:49:21.063Z,67.31
2022-10-01T10:51:53.655Z,67.50
2022-10-01T10:54:30.899Z,67.26
2022-10-01T10:57:22.946Z,67.21
2022-10-01T11:00:13.060Z,66.89
2022-10-01T11:02:48.915Z,66.91
2022-10-01T11:05:25.490Z,66.95
2022-10-01T11:07:59.987Z,66.92
2022-10-01T11:10:38.924Z,66.56
2022-10-01T11:13:08.708Z,66.37
2022-10-01T11:16:08.232Z,66.26
2022-10-01T11:19:12.421Z,66.30
2022-10-01T11:21:47.295Z,66.32
2022-10-01T11:25:08.353Z,66.25
2022-10-01T11:27:51.889Z,66.22
2022-10-01T11:30:25.956Z,66.28
2022-10-01T11:33:22.745Z,66.09
2022-10-01T11:35:58.408Z,66.07
2022-10-01T11:38:30.853Z,65.71
2022-10-01T11:41:07.911Z,65.53
2022-10-01T11:43:43.737Z,65.44
2022-10-01T11:46:21.279Z,65.25
2022-10-01T11:48:56.746Z,65.21
2022-10-01T11:51:29.478Z,65.27
2022-10-01T11:54:03.454Z,65.29
2022-10-01T11:56:54.132Z,65.33
2022-10-01T11:59:25.963Z,65.18
2022-10-01T12:02:18.598Z,65.11
2022-10-01T12:05:16.600Z,64.98
2022-10-01T12:07:43.498Z,64.74
2022-10-01T12:10:28.751Z,64.84
2022-10-01T12:13:15.352Z,64.64
2022-10-01T12:15:46.863Z,64.39
2022-10-01T12:26:19.131Z,64.22
2022-10-01T12:29:18.357Z,64.28
2022-10-01T12:33:25.035Z,64.20
2022-10-01T12:37:14.662Z,64.20
2022-10-01T12:39:59.628Z,64.14
2022-10-01T12:43:06.092Z,64.16
2022-10-01T12:45:58.760Z,64.25
2022-10-01T12:48:48.216Z,64.17
2022-10-01T12:51:17.359Z,64.31
2022-10-01T12:53:53.864Z,64.29
2022-10-01T12:56:33.117Z,64.21
2022-10-01T12:59:21.611Z,64.38
2022-10-01T13:02:43.522Z,64.18
2022-10-01T13:34:20.645Z,64.70
2022-10-01T13:36:52.912Z,64.66
2022-10-01T13:39:39.439Z,64.82
2022-10-01T13:42:16.115Z,64.75
2022-10-01T13:44:53.195Z,64.76
2022-10-01T13:47:22.301Z,64.97
2022-10-01T13:50:52.966Z,64.90
2022-10-01T13:53:24.340Z,64.99
2022-10-01T13:56:02.265Z,65.23
2022-10-01T13:58:43.056Z,65.38
2022-10-01T14:01:19.964Z,65.66
2022-10-01T14:03:55.355Z,65.82
2022-10-01T14:06:53.880Z,66.07
2022-10-01T14:09:42.207Z,66.18
2022-10-01T14:13:00.808Z,66.30
2022-10-01T14:15:58.684Z,66.44
2022-10-01T14:18:41.353Z,66.56
2022-10-01T14:21:35.887Z,66.74
2022-10-01T14:24:28.673Z,66.87
2022-10-01T14:27:07.269Z,66.88
2022-10-01T14:29:49.070Z,66.92
2022-10-01T14:32:40.714Z,67.16
2022-10-01T14:35:30.877Z,67.24
2022-10-01T14:38:03.628Z,67.41
2022-10-01T14:40:42.322Z,67.72
2022-10-01T14:43:17.886Z,67.87
2022-10-01T14:46:02.311Z,67.86
2022-10-01T14:48:34.140Z,68.10
2022-10-01T14:51:05.670Z,68.44
2022-10-01T14:53:37.827Z,68.42
2022-10-01T14:56:08.907Z,68.86
2022-10-01T14:58:50.747Z,68.76
2022-10-01T15:01:34.850Z,68.92
2022-10-01T15:04:01.920Z,69.07
2022-10-01T15:06:40.910Z,69.21
2022-10-01T15:09:14.369Z,69.50
2022-10-01T15:11:44.684Z,69.59
2022-10-01T15:14:55.615Z,69.69
2022-10-01T15:17:26.943Z,69.76
2022-10-01T15:19:57.970Z,69.82
2022-10-01T15:22:32.036Z,69.87
2022-10-01T15:25:20.415Z,70.19
2022-10-01T15:27:48.549Z,70.27
2022-10-01T15:30:40.773Z,70.59
2022-10-01T15:37:07.954Z,70.81
2022-10-01T15:39:40.322Z,70.85
2022-10-01T15:42:35.710Z,70.93
2022-10-01T15:45:53.384Z,71.09
2022-10-01T15:48:31.924Z,71.00
2022-10-01T15:51:05.226Z,71.25
2022-10-01T15:53:33.557Z,71.32
2022-10-01T15:56:10.238Z,71.47
2022-10-01T15:58:44.300Z,71.41
2022-10-01T16:01:30.158Z,71.47
2022-10-01T16:04:05.887Z,71.73
2022-10-01T16:06:43.065Z,71.69
2022-10-01T16:09:16.063Z,71.64
2022-10-01T16:11:59.095Z,71.77
2022-10-01T16:14:58.988Z,71.86
2022-10-01T16:17:36.646Z,71.88
2022-10-01T16:20:15.624Z,71.96
2022-10-01T16:22:43.084Z,71.94
2022-10-01T16:25:24.937Z,72.30
2022-10-01T16:28:00.333Z,72.15
2022-10-01T16:30:29.186Z,72.32
2022-10-01T16:33:01.893Z,72.35
2022-10-01T16:35:35.116Z,72.27
2022-10-01T16:38:07.710Z,72.39
2022-10-01T16:40:39.468Z,72.41
2022-10-01T16:43:08.206Z,72.37
2022-10-01T16:45:37.698Z,72.63
2022-10-01T16:48:16.160Z,72.68
2022-10-01T16:50:45.847Z,72.89
2022-10-01T16:53:14.802Z,72.92
2022-10-01T16:55:42.381Z,72.98
2022-10-01T16:58:09.699Z,72.86
2022-10-01T17:00:39.248Z,73.04
2022-10-01T17:03:08.511Z,73.17
2022-10-01T17:05:37.044Z,73.02
2022-10-01T17:08:10.882Z,73.26
2022-10-01T17:10:56.670Z,73.24
2022-10-01T17:13:25.167Z,73.45
2022-10-01T17:15:52.606Z,73.41
2022-10-01T17:18:19.777Z,73.48
2022-10-01T17:20:46.633Z,73.58
2022-10-01T17:23:16.137Z,73.51
2022-10-01T17:25:43.819Z,73.65
2022-10-01T17:28:13.887Z,73.49
2022-10-01T17:30:48.269Z,73.62
2022-10-01T17:33:18.663Z,73.63
2022-10-01T17:35:51.033Z,73.65
2022-10-01T17:38:18.729Z,73.64
2022-10-01T17:40:45.602Z,73.76
2022-10-01T17:43:14.551Z,73.83
2022-10-01T17:45:51.892Z,73.88
2022-10-01T17:48:21.701Z,73.88
2022-10-01T17:51:01.722Z,74.05
2022-10-01T17:53:34.900Z,73.85
2022-10-01T17:56:07.577Z,73.97
2022-10-01T17:58:34.743Z,74.03
2022-10-01T18:01:02.157Z,74.04
2022-10-01T18:03:29.161Z,73.97
2022-10-01T18:06:02.980Z,74.23
2022-10-01T18:08:54.245Z,74.25
2022-10-01T18:11:24.360Z,74.42
2022-10-01T18:13:52.033Z,74.29
2022-10-01T18:16:19.752Z,74.41
2022-10-01T18:21:34.334Z,74.61
2022-10-01T18:24:04.559Z,74.49
2022-10-01T18:26:32.682Z,74.57
2022-10-01T18:29:05.206Z,74.58
2022-10-01T19:15:36.671Z,75.22
2022-10-01T19:42:50.994Z,75.31
2022-10-01T20:25:43.678Z,75.82
2022-10-01T21:11:40.767Z,76.23
2022-10-01T21:14:19.819Z,76.12
2022-10-01T21:20:24.173Z,76.23
2022-10-01T21:23:26.360Z,76.43
2022-10-01T21:29:49.339Z,76.29
2022-10-01T21:36:16.878Z,76.24
2022-10-01T21:43:03.751Z,76.63
2022-10-01T21:45:45.330Z,76.37
2022-10-01T21:48:44.710Z,76.49
2022-10-01T21:51:18.929Z,76.47
2022-10-01T21:54:09.723Z,76.48
2022-10-01T21:56:45.633Z,76.43
2022-10-01T21:59:21.502Z,76.53
2022-10-01T22:02:09.995Z,76.43
2022-10-01T22:04:54.874Z,76.52
2022-10-01T22:07:41.275Z,76.28
2022-10-01T22:10:38.113Z,76.15
2022-10-01T22:13:20.080Z,76.44
2022-10-01T22:15:52.421Z,76.47
2022-10-01T22:18:33.346Z,76.24
2022-10-01T22:21:06.622Z,76.31
2022-10-01T22:23:37.498Z,76.53
2022-10-01T22:26:13.726Z,76.43
2022-10-01T22:28:44.468Z,76.53
2022-10-01T22:31:16.393Z,76.71
2022-10-01T22:34:10.164Z,76.61
2022-10-01T22:36:52.612Z,76.62
2022-10-01T22:39:29.165Z,76.61
2022-10-01T22:41:59.644Z,76.53
2022-10-01T22:44:28.040Z,76.49
2022-10-01T22:47:00.591Z,76.69
2022-10-01T22:49:45.351Z,76.61
2022-10-01T22:52:50.847Z,76.65
2022-10-01T22:55:20.925Z,76.83
2022-10-01T22:58:10.974Z,76.58
2022-10-01T23:01:04.235Z,76.61
2022-10-01T23:03:52.203Z,76.54
2022-10-01T23:06:18.973Z,76.69
2022-10-01T23:09:04.077Z,76.79
2022-10-01T23:11:48.894Z,76.82
2022-10-01T23:14:38.565Z,76.98
2022-10-01T23:17:13.353Z,76.91
2022-10-01T23:20:08.812Z,76.73
2022-10-01T23:22:47.329Z,76.96
2022-10-01T23:25:41.038Z,76.72
2022-10-01T23:28:30.056Z,77.00
2022-10-01T23:31:22.151Z,76.94
2022-10-01T23:34:10.336Z,76.96
2022-10-01T23:36:57.331Z,76.85
2022-10-01T23:39:40.047Z,76.87
2022-10-01T23:43:06.221Z,76.84
2022-10-01T23:45:44.430Z,77.09
2022-10-01T23:48:21.549Z,77.13
2022-10-01T23:51:02.075Z,77.20
2022-10-01T23:53:44.973Z,77.18
2022-10-01T23:56:34.095Z,77.01
2022-10-01T23:59:14.747Z,77.05
